This is the latest recevied weather packets stored in our database for station/object AD7ZD. If no packets are shown the sender has not sent any weather packets the latest 10 day(s).
| Time | Temp. | Humidity | Pressure | Rain* | Wind** | Luminosity | Snow |
|---|---|---|---|---|---|---|---|
| 1778133444 | 15° C | 43% | 1017.1 hPa | 0 mm | - | 0 W/m² | - |
| 1778133139 | 14.44° C | 48% | 1017.4 hPa | 0 mm | - | 0 W/m² | - |
| 1778132835 | 13.89° C | 52% | 1017.5 hPa | 0 mm | - | 0 W/m² | - |
| 1778132533 | 13.89° C | 50% | 1017.4 hPa | 0 mm | - | 0 W/m² | - |
| 1778132230 | 13.89° C | 54% | 1017.2 hPa | 0 mm | - | 0 W/m² | - |
| 1778131928 | 15.56° C | 44% | 1017.4 hPa | 0 mm | - | 0 W/m² | - |
| 1778131627 | 16.67° C | 39% | 1017.2 hPa | 0 mm | - | 0 W/m² | - |
| 1778131322 | 17.22° C | 38% | 1017.1 hPa | 0 mm | - | 0 W/m² | - |
| 1778131020 | 17.22° C | 37% | 1017.1 hPa | 0 mm | - | 0 W/m² | - |
| 1778130716 | 16.67° C | 39% | 1017.1 hPa | 0 mm | - | 0 W/m² | - |
| 1778130413 | 16.67° C | 40% | 1017.2 hPa | 0 mm | - | 0 W/m² | - |
| 1778130110 | 16.11° C | 41% | 1017 hPa | 0 mm | - | 0 W/m² | - |
| 1778129807 | 16.11° C | 42% | 1017 hPa | 0 mm | - | 0 W/m² | - |
| 1778129504 | 16.67° C | 40% | 1017.2 hPa | 0 mm | - | 0 W/m² | - |
| 1778129200 | 17.22° C | 39% | 1017.2 hPa | 0 mm | - | 0 W/m² | - |
| 1778128897 | 18.33° C | 34% | 1017 hPa | 0 mm | - | 0 W/m² | - |
| 1778128593 | 18.89° C | 32% | 1016.9 hPa | 0 mm | - | 0 W/m² | - |
| 1778128291 | 18.33° C | 34% | 1017 hPa | 0 mm | - | 0 W/m² | - |
| 1778127987 | 18.33° C | 35% | 1016.8 hPa | 0 mm | - | 0 W/m² | - |
| 1778127682 | 18.89° C | 33% | 1017 hPa | 0 mm | - | 0 W/m² | - |
| 1778127379 | 19.44° C | 33% | 1017 hPa | 0 mm | - | 0 W/m² | - |
| 1778127076 | 19.44° C | 35% | 1016.9 hPa | 0 mm | - | 0 W/m² | - |
| 1778126773 | 18.33° C | 39% | 1016.9 hPa | 0 mm | - | 0 W/m² | - |
| 1778126469 | 19.44° C | 38% | 1016.9 hPa | 0 mm | - | 0 W/m² | - |
| 1778126165 | 18.89° C | 40% | 1016.8 hPa | 0 mm | - | 0 W/m² | - |
* Rain latest hour (hover to see other rain measurements)
** Current wind speed in m/s (hover to see current wind gust speed)